createdAt,value
2019-01-28T05:41:31.076Z,0
2019-01-28T05:42:11.630Z,0
2019-01-28T05:42:52.193Z,0
2019-01-28T05:43:32.738Z,0
2019-01-28T05:44:13.299Z,0
2019-01-28T05:44:53.862Z,0
2019-01-28T05:45:34.416Z,0
2019-01-28T05:46:14.964Z,0
2019-01-28T05:46:55.517Z,0
2019-01-28T05:47:36.162Z,0
2019-01-28T05:48:16.718Z,0
2019-01-28T05:48:57.266Z,0
2019-01-28T05:49:37.827Z,0
2019-01-28T05:50:18.393Z,0
2019-01-28T05:50:58.951Z,0
2019-01-28T05:51:39.502Z,0
2019-01-28T05:52:20.061Z,0
2019-01-28T05:53:00.633Z,0
2019-01-28T05:53:41.185Z,0
2019-01-28T05:54:21.754Z,0
2019-01-28T05:55:02.316Z,0
2019-01-28T05:55:42.870Z,0
2019-01-28T05:56:23.433Z,0
2019-01-28T05:57:03.981Z,0
2019-01-28T05:57:44.584Z,0
2019-01-28T05:58:25.139Z,0
2019-01-28T05:59:05.705Z,0
2019-01-28T05:59:46.259Z,0
2019-01-28T06:00:26.818Z,0
2019-01-28T06:01:07.375Z,0
2019-01-28T06:01:47.941Z,0
2019-01-28T06:02:28.492Z,0
2019-01-28T06:03:09.046Z,0
2019-01-28T06:03:49.599Z,0
2019-01-28T06:04:30.238Z,0
2019-01-28T06:05:10.734Z,0
2019-01-28T06:05:51.288Z,0
2019-01-28T06:06:31.835Z,0
2019-01-28T06:07:12.386Z,0
2019-01-28T06:07:52.941Z,0
2019-01-28T06:08:33.501Z,0
2019-01-28T06:09:14.057Z,0
2019-01-28T06:09:54.609Z,0
2019-01-28T06:10:35.189Z,0
2019-01-28T06:11:15.746Z,0
2019-01-28T06:11:56.307Z,0
2019-01-28T06:12:36.890Z,0
2019-01-28T06:13:17.508Z,0
2019-01-28T06:13:58.066Z,0
2019-01-28T06:14:38.640Z,0
2019-01-28T06:15:19.192Z,0
2019-01-28T06:15:59.748Z,0
2019-01-28T06:16:40.301Z,4
2019-01-28T06:17:20.861Z,4
2019-01-28T06:18:01.420Z,4
2019-01-28T06:18:41.966Z,4
2019-01-28T06:19:22.528Z,4
2019-01-28T06:20:03.079Z,4
2019-01-28T06:20:43.632Z,0
2019-01-28T06:21:24.224Z,4
2019-01-28T06:22:04.772Z,4
2019-01-28T06:22:45.318Z,4
2019-01-28T06:23:25.885Z,4
2019-01-28T06:24:06.451Z,4
2019-01-28T06:24:47.004Z,4
2019-01-28T06:25:27.552Z,4
2019-01-28T06:26:08.116Z,4
2019-01-28T06:26:48.685Z,8
2019-01-28T06:27:29.277Z,4
2019-01-28T06:28:09.854Z,8
2019-01-28T06:28:50.663Z,8
2019-01-28T06:29:31.286Z,8
2019-01-28T06:30:11.923Z,8
2019-01-28T06:30:52.527Z,8
2019-01-28T06:31:33.096Z,12
2019-01-28T06:32:15.562Z,16
2019-01-28T06:32:54.404Z,12
2019-01-28T06:33:34.979Z,16
2019-01-28T06:34:15.537Z,20
2019-01-28T06:34:56.113Z,20
2019-01-28T06:35:36.667Z,24
2019-01-28T06:36:17.230Z,24
2019-01-28T06:36:57.769Z,28
2019-01-28T06:37:38.328Z,32
2019-01-28T06:38:19.143Z,32
2019-01-28T06:38:59.703Z,36
2019-01-28T06:39:40.270Z,36
2019-01-28T06:40:20.825Z,44
2019-01-28T06:41:01.399Z,48
2019-01-28T06:41:42.001Z,48
2019-01-28T06:42:22.604Z,52
2019-01-28T06:43:03.174Z,56
2019-01-28T06:43:43.784Z,64
2019-01-28T06:44:24.329Z,68
2019-01-28T06:45:04.891Z,72
2019-01-28T06:45:45.456Z,80
2019-01-28T06:46:26.021Z,84
2019-01-28T06:47:06.569Z,88
2019-01-28T06:47:47.296Z,100
2019-01-28T06:48:27.675Z,104
2019-01-28T06:49:08.247Z,112
2019-01-28T06:49:48.812Z,120
2019-01-28T06:50:29.378Z,124
2019-01-28T06:51:10.420Z,132
2019-01-28T06:51:50.504Z,144
2019-01-28T06:52:31.055Z,152
2019-01-28T06:53:11.611Z,160
2019-01-28T06:53:52.165Z,168
2019-01-28T06:54:32.731Z,176
2019-01-28T06:55:13.292Z,184
2019-01-28T06:55:53.838Z,196
2019-01-28T06:56:34.400Z,200
2019-01-28T06:57:14.987Z,212
2019-01-28T06:57:55.567Z,224
2019-01-28T06:58:36.145Z,232
2019-01-28T06:59:16.717Z,240
2019-01-28T06:59:57.269Z,256
2019-01-28T07:00:37.808Z,268
2019-01-28T07:01:18.384Z,276
2019-01-28T07:01:58.971Z,288
2019-01-28T07:02:39.576Z,304
2019-01-28T07:03:20.121Z,312
2019-01-28T07:04:00.699Z,328
2019-01-28T07:04:41.260Z,340
2019-01-28T07:05:21.831Z,352
2019-01-28T07:06:02.400Z,368
2019-01-28T07:06:43.018Z,380
2019-01-28T07:07:23.584Z,396
2019-01-28T07:08:04.141Z,412
2019-01-28T07:08:44.688Z,424
2019-01-28T07:09:25.233Z,440
2019-01-28T07:10:05.813Z,456
2019-01-28T07:10:46.377Z,472
2019-01-28T07:11:26.938Z,496
2019-01-28T07:12:07.491Z,516
2019-01-28T07:12:48.054Z,536
2019-01-28T07:13:28.640Z,564
2019-01-28T07:14:09.208Z,592
2019-01-28T07:14:49.760Z,616
2019-01-28T07:15:30.325Z,628
2019-01-28T07:16:10.913Z,632
2019-01-28T07:16:51.491Z,632
2019-01-28T07:17:32.054Z,636
2019-01-28T07:18:12.617Z,644
2019-01-28T07:18:53.173Z,660
2019-01-28T07:19:33.737Z,684
2019-01-28T07:20:14.301Z,704
2019-01-28T07:20:54.917Z,728
2019-01-28T07:21:35.473Z,756
2019-01-28T07:22:16.039Z,780
2019-01-28T07:22:56.627Z,820
2019-01-28T07:23:37.189Z,852
2019-01-28T07:24:17.757Z,892
2019-01-28T07:24:58.321Z,928
2019-01-28T07:25:38.893Z,952
2019-01-28T07:26:19.448Z,980
2019-01-28T07:27:00.044Z,980
2019-01-28T07:27:40.613Z,916
2019-01-28T07:28:21.163Z,888
2019-01-28T07:29:01.767Z,880
2019-01-28T07:29:42.341Z,920
2019-01-28T07:30:22.891Z,972
2019-01-28T07:31:03.448Z,956
2019-01-28T07:31:44.019Z,984
2019-01-28T07:32:24.587Z,1036
2019-01-28T07:33:05.149Z,1072
2019-01-28T07:33:45.702Z,1116
2019-01-28T07:34:26.260Z,1144
2019-01-28T07:35:06.826Z,1132
2019-01-28T07:35:47.381Z,1156
2019-01-28T07:36:27.925Z,1168
2019-01-28T07:37:08.501Z,1212
2019-01-28T07:37:49.051Z,1216
2019-01-28T07:38:29.656Z,1232
2019-01-28T07:39:10.224Z,1332
2019-01-28T07:39:50.805Z,1380
2019-01-28T07:40:31.385Z,1392
2019-01-28T07:41:11.942Z,1384
2019-01-28T07:41:52.501Z,1408
2019-01-28T07:42:33.050Z,1416
2019-01-28T07:43:13.660Z,1412
2019-01-28T07:43:54.219Z,1420
2019-01-28T07:44:34.763Z,1444
2019-01-28T07:45:15.356Z,1492
2019-01-28T07:45:55.927Z,1524
2019-01-28T07:46:36.529Z,1528
2019-01-28T07:47:17.104Z,1524
2019-01-28T07:48:02.620Z,1512
2019-01-28T07:48:38.227Z,1488
2019-01-28T07:49:18.801Z,1480
2019-01-28T07:49:59.355Z,1432
2019-01-28T07:50:39.920Z,1396
2019-01-28T07:51:20.618Z,1360
2019-01-28T07:52:01.167Z,1340
2019-01-28T07:52:41.719Z,1348
2019-01-28T07:53:22.279Z,1364
2019-01-28T07:54:02.830Z,1388
2019-01-28T07:54:43.391Z,1404
2019-01-28T07:55:23.952Z,1432
2019-01-28T07:56:04.511Z,1436
2019-01-28T07:56:45.063Z,1476
2019-01-28T07:57:25.619Z,1508
2019-01-28T07:58:06.186Z,1552
2019-01-28T07:58:46.743Z,1508
2019-01-28T07:59:27.296Z,1516
2019-01-28T08:00:07.850Z,1524
2019-01-28T08:00:48.418Z,1556
2019-01-28T08:01:28.972Z,1648
2019-01-28T08:02:09.538Z,1628
2019-01-28T08:02:50.089Z,1628
2019-01-28T08:03:30.650Z,1604
2019-01-28T08:04:11.211Z,1580
2019-01-28T08:04:51.776Z,1580
2019-01-28T08:05:32.330Z,1612
2019-01-28T08:06:12.916Z,1676
2019-01-28T08:06:59.314Z,1692
2019-01-28T08:07:34.034Z,1740
2019-01-28T08:08:14.585Z,1824
2019-01-28T08:08:55.202Z,1912
2019-01-28T08:09:35.750Z,1904
2019-01-28T08:10:16.315Z,1988
2019-01-28T08:10:56.883Z,2044
2019-01-28T08:11:37.428Z,2036
2019-01-28T08:12:18.015Z,2056
2019-01-28T08:12:58.585Z,2128
2019-01-28T08:13:39.202Z,2172
2019-01-28T08:14:19.764Z,2208
2019-01-28T08:15:00.326Z,2240
2019-01-28T08:15:40.883Z,2276
2019-01-28T08:16:21.443Z,2296
2019-01-28T08:17:01.996Z,2264
2019-01-28T08:17:42.556Z,2264
2019-01-28T08:18:23.110Z,2296
2019-01-28T08:19:03.673Z,2348
2019-01-28T08:19:44.227Z,2352
2019-01-28T08:20:24.803Z,2376
2019-01-28T08:21:05.363Z,2384
2019-01-28T08:21:45.921Z,2304
2019-01-28T08:22:26.505Z,2344
2019-01-28T08:23:07.153Z,2336
2019-01-28T08:23:47.662Z,2340
2019-01-28T08:24:28.216Z,2352
2019-01-28T08:25:08.785Z,2348
2019-01-28T08:25:49.347Z,2368
2019-01-28T08:26:29.895Z,2352
2019-01-28T08:27:10.477Z,2408
2019-01-28T08:27:51.059Z,2468
2019-01-28T08:28:36.777Z,2488
2019-01-28T08:29:12.215Z,2496
2019-01-28T08:29:52.780Z,2528
2019-01-28T08:30:33.345Z,2516
2019-01-28T08:31:13.902Z,2528
2019-01-28T08:31:54.471Z,2556
2019-01-28T08:32:35.034Z,2560
2019-01-28T08:33:15.592Z,2624
2019-01-28T08:33:56.181Z,2732
2019-01-28T08:34:36.733Z,2740
2019-01-28T08:35:17.295Z,2788
2019-01-28T08:35:57.857Z,2848
2019-01-28T08:36:38.459Z,2940
2019-01-28T08:37:19.015Z,2976
2019-01-28T08:37:59.585Z,2992
2019-01-28T08:38:40.147Z,3028
2019-01-28T08:39:20.689Z,3056
2019-01-28T08:40:01.249Z,3128
2019-01-28T08:40:41.816Z,3240
2019-01-28T08:41:22.391Z,3348
2019-01-28T08:42:03.027Z,3564
2019-01-28T08:42:43.624Z,4876
2019-01-28T08:43:24.190Z,9464
2019-01-28T08:44:04.741Z,17184
2019-01-28T08:44:45.322Z,23936
2019-01-28T08:45:25.874Z,26336
2019-01-28T08:46:06.437Z,26368
2019-01-28T08:46:47.013Z,24320
2019-01-28T08:47:27.986Z,24256
2019-01-28T08:48:08.562Z,23872
2019-01-28T08:48:49.124Z,23232
2019-01-28T08:49:29.695Z,19552
2019-01-28T08:50:10.259Z,19584
2019-01-28T08:50:50.832Z,21280
2019-01-28T08:51:31.382Z,26944
2019-01-28T08:52:11.950Z,30080
2019-01-28T08:52:52.524Z,33184
2019-01-28T08:53:33.078Z,36960
2019-01-28T08:54:13.656Z,36128
2019-01-28T08:54:54.205Z,32736
2019-01-28T08:55:34.749Z,32480
2019-01-28T08:56:16.739Z,29664
2019-01-28T08:56:55.910Z,29184
2019-01-28T08:57:36.469Z,31136
2019-01-28T08:58:17.122Z,29376
2019-01-28T08:58:57.678Z,26464
2019-01-28T08:59:38.247Z,20640
2019-01-28T09:00:18.811Z,18592
2019-01-28T09:00:59.386Z,21856
2019-01-28T09:01:39.965Z,24000
2019-01-28T09:02:20.520Z,23872
2019-01-28T09:03:01.088Z,24832
2019-01-28T09:03:41.654Z,26592
2019-01-28T09:04:22.229Z,25376
2019-01-28T09:05:02.801Z,22432
2019-01-28T09:05:43.365Z,21024
2019-01-28T09:06:23.937Z,20608
2019-01-28T09:07:04.503Z,18656
2019-01-28T09:07:45.060Z,16864
2019-01-28T09:08:25.611Z,16736
2019-01-28T09:09:06.168Z,20384
2019-01-28T09:09:46.740Z,22816
2019-01-28T09:10:27.295Z,24480
2019-01-28T09:11:08.011Z,27040
2019-01-28T09:11:48.578Z,27584
2019-01-28T09:12:29.195Z,29216
2019-01-28T09:13:09.766Z,27968
2019-01-28T09:13:50.325Z,26752
2019-01-28T09:14:30.893Z,25024
2019-01-28T09:15:11.442Z,21472
2019-01-28T09:15:52.007Z,22016
2019-01-28T09:16:32.577Z,23744
2019-01-28T09:17:13.148Z,25216
2019-01-28T09:17:53.706Z,27360
2019-01-28T09:18:34.274Z,27872
2019-01-28T09:19:14.834Z,25248
2019-01-28T09:19:55.403Z,21248
2019-01-28T09:20:35.954Z,16672
2019-01-28T09:21:16.501Z,14944
2019-01-28T09:21:57.056Z,19072
2019-01-28T09:22:37.638Z,23488
2019-01-28T09:23:18.209Z,25184
2019-01-28T09:23:58.773Z,23936
2019-01-28T09:24:39.482Z,18912
2019-01-28T09:25:20.029Z,15200
2019-01-28T09:26:00.609Z,16768
2019-01-28T09:26:41.182Z,22432
2019-01-28T09:27:21.758Z,24672
2019-01-28T09:28:02.498Z,26624
2019-01-28T09:28:43.050Z,27168
2019-01-28T09:29:23.597Z,28480
2019-01-28T09:30:04.159Z,31072
2019-01-28T09:30:44.749Z,31168
2019-01-28T09:31:25.317Z,30112
2019-01-28T09:32:05.893Z,29344
2019-01-28T09:32:46.453Z,26592
2019-01-28T09:33:27.012Z,27488
2019-01-28T09:34:07.567Z,33280
2019-01-28T09:34:48.179Z,33504
2019-01-28T09:35:28.754Z,32064
2019-01-28T09:36:09.313Z,30464
2019-01-28T09:36:49.892Z,31200
2019-01-28T09:37:30.475Z,30752
2019-01-28T09:38:11.044Z,30720
2019-01-28T09:38:51.603Z,32128
2019-01-28T09:39:32.163Z,31968
2019-01-28T09:40:12.757Z,29056
2019-01-28T09:40:53.319Z,22304
2019-01-28T09:41:35.568Z,19520
2019-01-28T09:42:14.461Z,19552
2019-01-28T09:42:55.053Z,18784
2019-01-28T09:43:35.615Z,16608
2019-01-28T09:44:16.183Z,15296
2019-01-28T09:44:56.770Z,13476
2019-01-28T09:45:37.355Z,12032
2019-01-28T09:46:17.928Z,10672
2019-01-28T09:46:58.502Z,9756
2019-01-28T09:47:39.080Z,9148
2019-01-28T09:48:19.632Z,8864
2019-01-28T09:49:00.208Z,8428
2019-01-28T09:49:40.775Z,8064
2019-01-28T09:50:21.379Z,7980
2019-01-28T09:51:01.957Z,7808
2019-01-28T09:51:42.528Z,7840
2019-01-28T09:52:23.144Z,7788
2019-01-28T09:53:03.792Z,7608
2019-01-28T09:53:44.384Z,7456
2019-01-28T09:54:25.058Z,7164
2019-01-28T09:55:05.603Z,6792
2019-01-28T09:55:46.191Z,6740
2019-01-28T09:56:26.760Z,6692
2019-01-28T09:57:07.373Z,6572
2019-01-28T09:57:48.009Z,5884
2019-01-28T09:58:28.605Z,6524
2019-01-28T09:59:09.174Z,6456
2019-01-28T09:59:49.741Z,6280
2019-01-28T10:00:30.296Z,6012
2019-01-28T10:01:10.911Z,5904
2019-01-28T10:01:51.470Z,5572
2019-01-28T10:02:32.054Z,5272
2019-01-28T10:03:12.648Z,5232
2019-01-28T10:03:53.215Z,5064
2019-01-28T10:04:33.768Z,4900
2019-01-28T10:05:14.318Z,4908
2019-01-28T10:05:54.892Z,4952
2019-01-28T10:06:35.454Z,4876
2019-01-28T10:07:16.016Z,4892
2019-01-28T10:07:56.578Z,4996
2019-01-28T10:08:37.166Z,5052
2019-01-28T10:09:17.700Z,5128
2019-01-28T10:09:58.269Z,5096
2019-01-28T10:10:38.844Z,5036
2019-01-28T10:11:19.383Z,4988
2019-01-28T10:11:59.960Z,4920
2019-01-28T10:12:40.525Z,4832
2019-01-28T10:13:21.111Z,4680
2019-01-28T10:14:01.683Z,4276
2019-01-28T10:14:42.267Z,4076
2019-01-28T10:15:22.849Z,4056
2019-01-28T10:16:03.417Z,4004
2019-01-28T10:16:43.987Z,3972
2019-01-28T10:17:24.545Z,4108
2019-01-28T10:18:05.114Z,4032
2019-01-28T10:18:45.733Z,3968
2019-01-28T10:19:26.575Z,3900
2019-01-28T10:20:07.257Z,3880
2019-01-28T10:20:47.809Z,3848
2019-01-28T10:21:28.392Z,3708
2019-01-28T10:22:08.969Z,3560
2019-01-28T10:22:49.528Z,3472
2019-01-28T10:23:30.098Z,3616
2019-01-28T10:24:10.669Z,3784
2019-01-28T10:24:51.250Z,3812
2019-01-28T10:25:31.815Z,3748
2019-01-28T10:26:12.384Z,3672
2019-01-28T10:26:52.957Z,3628
2019-01-28T10:27:33.516Z,3584
2019-01-28T10:28:14.079Z,3632
2019-01-28T10:28:54.815Z,3644
2019-01-28T10:29:35.362Z,3604
2019-01-28T10:30:15.918Z,3604
2019-01-28T10:30:56.482Z,3624
2019-01-28T10:31:37.053Z,3604
2019-01-28T10:32:17.612Z,3548
2019-01-28T10:32:58.200Z,3484
2019-01-28T10:33:38.759Z,3324
2019-01-28T10:34:19.332Z,3312
2019-01-28T10:34:59.921Z,3268
2019-01-28T10:35:40.525Z,3120
2019-01-28T10:36:22.670Z,2952
2019-01-28T10:37:01.650Z,2872
2019-01-28T10:37:42.230Z,2784
2019-01-28T10:38:22.813Z,2688
2019-01-28T10:39:03.383Z,2664
2019-01-28T10:39:43.936Z,2696
2019-01-28T10:40:24.507Z,2800
2019-01-28T10:41:05.072Z,2800
2019-01-28T10:41:45.669Z,2788
2019-01-28T10:42:26.226Z,2944
2019-01-28T10:43:06.809Z,2788
2019-01-28T10:43:47.379Z,2656
2019-01-28T10:44:27.971Z,2620
2019-01-28T10:45:08.560Z,2624
2019-01-28T10:45:49.135Z,2624
2019-01-28T10:46:29.692Z,2572
2019-01-28T10:47:10.300Z,2492
2019-01-28T10:47:50.859Z,2440
2019-01-28T10:48:31.427Z,2464
2019-01-28T10:49:12.009Z,2468
2019-01-28T10:49:52.581Z,2496
2019-01-28T10:50:33.142Z,2520
2019-01-28T10:51:13.707Z,2516
2019-01-28T10:51:54.299Z,2512
2019-01-28T10:52:34.866Z,2480
2019-01-28T10:53:15.441Z,2460
2019-01-28T10:53:55.998Z,2456
2019-01-28T10:54:36.551Z,2468
2019-01-28T10:55:17.110Z,2464
2019-01-28T10:55:57.691Z,2448
2019-01-28T10:56:38.265Z,2436
2019-01-28T10:57:18.841Z,2428
2019-01-28T10:57:59.402Z,2400
2019-01-28T10:58:39.979Z,2392
2019-01-28T10:59:20.536Z,2380
2019-01-28T11:00:01.109Z,2400
2019-01-28T11:00:41.646Z,2404
2019-01-28T11:01:22.195Z,2332
2019-01-28T11:02:02.766Z,2472
2019-01-28T11:02:43.367Z,2424
2019-01-28T11:03:23.936Z,2428
2019-01-28T11:04:04.529Z,2504
2019-01-28T11:04:45.078Z,2440
2019-01-28T11:05:25.623Z,2380
2019-01-28T11:06:06.230Z,2324
2019-01-28T11:06:46.748Z,2372
2019-01-28T11:07:27.312Z,2504
2019-01-28T11:08:07.874Z,2504
2019-01-28T11:08:48.440Z,2384
2019-01-28T11:09:29.155Z,2348
2019-01-28T11:10:09.588Z,2400
2019-01-28T11:10:50.162Z,2352
2019-01-28T11:11:30.814Z,2376
2019-01-28T11:12:11.330Z,2408
2019-01-28T11:12:51.983Z,2312
2019-01-28T11:13:32.505Z,2468
2019-01-28T11:14:13.008Z,2592
2019-01-28T11:14:53.587Z,2720
2019-01-28T11:15:34.154Z,2932
2019-01-28T11:16:14.722Z,2880
2019-01-28T11:16:55.339Z,2760
2019-01-28T11:17:35.824Z,2652
2019-01-28T11:18:16.412Z,2508
2019-01-28T11:18:57.689Z,2696
2019-01-28T11:19:37.518Z,2732
2019-01-28T11:20:18.119Z,2920
2019-01-28T11:20:58.795Z,3044
2019-01-28T11:21:39.256Z,3128
2019-01-28T11:22:19.851Z,3612
2019-01-28T11:23:00.502Z,4096
2019-01-28T11:23:40.968Z,3492
2019-01-28T11:24:21.579Z,3764
2019-01-28T11:25:02.208Z,3972
2019-01-28T11:25:42.822Z,3640
2019-01-28T11:26:23.411Z,3428
2019-01-28T11:27:03.832Z,3508
2019-01-28T11:27:44.421Z,3436
2019-01-28T11:28:24.964Z,3492
2019-01-28T11:29:05.616Z,3488
2019-01-28T11:29:46.052Z,3716
2019-01-28T11:30:26.691Z,3724
2019-01-28T11:31:07.174Z,3728
2019-01-28T11:31:47.788Z,4448
2019-01-28T11:32:28.381Z,4052
2019-01-28T11:33:08.982Z,3752
2019-01-28T11:33:49.556Z,3868
2019-01-28T11:34:30.035Z,3932
2019-01-28T11:35:10.590Z,3828
2019-01-28T11:35:51.205Z,4180
2019-01-28T11:36:31.686Z,4004
2019-01-28T11:37:12.314Z,3748
2019-01-28T11:37:52.848Z,3692
2019-01-28T11:38:33.374Z,3532
2019-01-28T11:39:13.909Z,3544
2019-01-28T11:39:54.503Z,3744
2019-01-28T11:40:35.056Z,3776
2019-01-28T11:41:15.670Z,3900
2019-01-28T11:41:56.190Z,4012
2019-01-28T11:42:36.786Z,4000
2019-01-28T11:43:17.446Z,3900
2019-01-28T11:43:57.849Z,3696
2019-01-28T11:44:38.589Z,3576
2019-01-28T11:45:19.071Z,3640
2019-01-28T11:45:59.611Z,3636
2019-01-28T11:46:40.128Z,3564
2019-01-28T11:47:20.697Z,3428
2019-01-28T11:48:01.389Z,3272
2019-01-28T11:48:41.825Z,3168
2019-01-28T11:49:22.575Z,3364
2019-01-28T11:50:03.161Z,3048
2019-01-28T11:50:43.546Z,2908
2019-01-28T11:51:24.125Z,2788
2019-01-28T11:52:04.668Z,2620
2019-01-28T11:52:45.242Z,2592
2019-01-28T11:53:25.804Z,2628
2019-01-28T11:54:06.378Z,2780
2019-01-28T11:54:46.944Z,2784
2019-01-28T11:55:27.514Z,2700
2019-01-28T11:56:08.071Z,2480
2019-01-28T11:56:48.659Z,2244
2019-01-28T11:57:29.220Z,2176
2019-01-28T11:58:09.809Z,2192
2019-01-28T11:58:50.419Z,2320
2019-01-28T11:59:30.982Z,2328
2019-01-28T12:00:11.551Z,2120
2019-01-28T12:00:52.121Z,1988
2019-01-28T12:01:32.684Z,1988
2019-01-28T12:02:13.263Z,1888
2019-01-28T12:02:53.838Z,1884
2019-01-28T12:03:34.398Z,1916
2019-01-28T12:04:14.953Z,2016
2019-01-28T12:04:55.507Z,2232
2019-01-28T12:05:36.053Z,2496
2019-01-28T12:06:16.609Z,2416
2019-01-28T12:06:57.163Z,2124
2019-01-28T12:07:37.780Z,1824
2019-01-28T12:08:18.331Z,1452
2019-01-28T12:08:58.898Z,1212
2019-01-28T12:09:39.458Z,1084
2019-01-28T12:10:20.019Z,1036
2019-01-28T12:11:00.636Z,1036
2019-01-28T12:11:41.232Z,1160
2019-01-28T12:12:21.803Z,1232
2019-01-28T12:13:02.360Z,1248
2019-01-28T12:13:42.938Z,1180
2019-01-28T12:14:23.509Z,1112
2019-01-28T12:15:04.065Z,1148
2019-01-28T12:15:44.663Z,1336
2019-01-28T12:16:25.229Z,1604
2019-01-28T12:17:05.807Z,1776
2019-01-28T12:17:46.374Z,1912
2019-01-28T12:18:27.066Z,1912
2019-01-28T12:19:13.938Z,1820
2019-01-28T12:19:48.199Z,1780
2019-01-28T12:20:28.754Z,1772
2019-01-28T12:21:09.329Z,1760
2019-01-28T12:21:49.885Z,1836
2019-01-28T12:22:30.473Z,2060
2019-01-28T12:23:11.026Z,2268
2019-01-28T12:23:51.669Z,2148
2019-01-28T12:24:32.222Z,2224
2019-01-28T12:25:12.787Z,2364
2019-01-28T12:25:53.340Z,2588
2019-01-28T12:26:33.916Z,2856
2019-01-28T12:27:14.483Z,3144
2019-01-28T12:27:55.044Z,3256
2019-01-28T12:28:35.596Z,3292
2019-01-28T12:29:16.199Z,3280
2019-01-28T12:29:56.801Z,3252
2019-01-28T12:30:37.361Z,3184
2019-01-28T12:31:17.919Z,3140
2019-01-28T12:31:58.472Z,3156
2019-01-28T12:32:39.037Z,3212
2019-01-28T12:33:19.585Z,3284
2019-01-28T12:34:00.142Z,3428
2019-01-28T12:34:40.685Z,4224
2019-01-28T12:35:21.288Z,4676
2019-01-28T12:36:01.823Z,4628
2019-01-28T12:36:42.380Z,3752
2019-01-28T12:37:23.114Z,3696
2019-01-28T12:38:03.858Z,3604
2019-01-28T12:38:44.569Z,3632
2019-01-28T12:39:25.130Z,3680
2019-01-28T12:40:05.688Z,3772
2019-01-28T12:40:46.239Z,3844
2019-01-28T12:41:26.814Z,3940
2019-01-28T12:42:07.377Z,3976
2019-01-28T12:42:47.949Z,4040
2019-01-28T12:43:28.517Z,4080
2019-01-28T12:44:09.080Z,4056
2019-01-28T12:44:49.624Z,4044
2019-01-28T12:45:30.185Z,4004
2019-01-28T12:46:10.735Z,3956
2019-01-28T12:46:51.323Z,3908
2019-01-28T12:47:32.127Z,3876
2019-01-28T12:48:12.689Z,3888
2019-01-28T12:48:53.247Z,3940
2019-01-28T12:49:33.811Z,3744
2019-01-28T12:50:14.423Z,3628
2019-01-28T12:50:54.985Z,3500
2019-01-28T12:51:35.572Z,3388
2019-01-28T12:52:16.123Z,3256
2019-01-28T12:52:56.687Z,3136
2019-01-28T12:53:37.627Z,3032
2019-01-28T12:54:17.814Z,2936
2019-01-28T12:54:58.400Z,2856
2019-01-28T12:55:38.973Z,2780
2019-01-28T12:56:19.541Z,2696
2019-01-28T12:57:00.108Z,2648
2019-01-28T12:57:40.671Z,2596
2019-01-28T12:58:21.235Z,2548
2019-01-28T12:59:08.907Z,2440
2019-01-28T12:59:42.360Z,2324
2019-01-28T13:00:22.915Z,2276
2019-01-28T13:01:03.469Z,2188
2019-01-28T13:01:44.054Z,2060
2019-01-28T13:02:24.613Z,1976
2019-01-28T13:03:05.176Z,1844
2019-01-28T13:03:45.748Z,1720
2019-01-28T13:04:26.304Z,1672
2019-01-28T13:05:06.865Z,1648
2019-01-28T13:05:47.427Z,1600
2019-01-28T13:06:27.968Z,1596
2019-01-28T13:07:08.534Z,1612
2019-01-28T13:07:49.087Z,1664
2019-01-28T13:08:29.671Z,1724
2019-01-28T13:09:10.244Z,1772
2019-01-28T13:09:50.807Z,1812
2019-01-28T13:10:31.366Z,1828
2019-01-28T13:11:11.924Z,1828
2019-01-28T13:11:52.483Z,1796
2019-01-28T13:12:33.047Z,1808
2019-01-28T13:13:13.647Z,1888
2019-01-28T13:13:54.221Z,1984
2019-01-28T13:14:34.787Z,2028
2019-01-28T13:15:15.340Z,2076
2019-01-28T13:15:55.890Z,2140
2019-01-28T13:16:36.449Z,2236
2019-01-28T13:17:17.041Z,2340
2019-01-28T13:17:57.598Z,2308
2019-01-28T13:18:38.191Z,2192
2019-01-28T13:19:18.756Z,2036
2019-01-28T13:19:59.321Z,1852
2019-01-28T13:20:40.390Z,1668
2019-01-28T13:21:20.419Z,1460
2019-01-28T13:22:01.029Z,1264
2019-01-28T13:22:44.870Z,1112
2019-01-28T13:23:22.158Z,988
2019-01-28T13:24:02.750Z,928
2019-01-28T13:24:43.309Z,944
2019-01-28T13:25:23.882Z,1004
2019-01-28T13:26:04.444Z,1096
2019-01-28T13:26:44.998Z,1192
2019-01-28T13:27:25.555Z,1292
2019-01-28T13:28:06.105Z,1424
2019-01-28T13:28:46.671Z,1552
2019-01-28T13:29:27.258Z,1648
2019-01-28T13:30:07.797Z,1708
2019-01-28T13:30:48.358Z,1752
2019-01-28T13:31:32.795Z,1796
2019-01-28T13:32:09.497Z,1828
2019-01-28T13:32:50.054Z,1840
2019-01-28T13:33:30.621Z,1860
2019-01-28T13:34:11.181Z,1856
2019-01-28T13:34:51.748Z,1816
2019-01-28T13:35:32.320Z,1812
2019-01-28T13:36:12.843Z,1776
2019-01-28T13:36:53.396Z,1712
2019-01-28T13:37:33.956Z,1624
2019-01-28T13:38:14.519Z,1552
2019-01-28T13:38:55.075Z,1492
2019-01-28T13:39:35.645Z,1440
2019-01-28T13:40:16.217Z,1384
2019-01-28T13:40:56.766Z,1324
2019-01-28T13:41:37.330Z,1292
2019-01-28T13:42:17.908Z,1264
2019-01-28T13:42:58.457Z,1232
2019-01-28T13:43:39.014Z,1204
2019-01-28T13:44:19.559Z,1152
2019-01-28T13:45:00.167Z,1100
2019-01-28T13:45:40.715Z,1048
2019-01-28T13:46:21.273Z,992
2019-01-28T13:47:01.836Z,956
2019-01-28T13:47:42.435Z,952
2019-01-28T13:48:22.981Z,948
2019-01-28T13:49:03.550Z,944
2019-01-28T13:49:44.126Z,932
2019-01-28T13:50:24.685Z,912
2019-01-28T13:51:06.413Z,896
2019-01-28T13:51:45.803Z,892
2019-01-28T13:52:26.360Z,892
2019-01-28T13:53:06.924Z,888
2019-01-28T13:53:47.506Z,884
2019-01-28T13:54:28.065Z,888
2019-01-28T13:55:08.622Z,884
2019-01-28T13:55:49.189Z,868
2019-01-28T13:56:29.748Z,852
2019-01-28T13:57:10.324Z,824
2019-01-28T13:57:50.874Z,788
2019-01-28T13:58:31.519Z,768
2019-01-28T13:59:16.303Z,760
2019-01-28T13:59:52.567Z,744
2019-01-28T14:00:33.182Z,728
2019-01-28T14:01:13.725Z,716
2019-01-28T14:01:54.297Z,696
2019-01-28T14:02:34.878Z,656
2019-01-28T14:03:15.450Z,596
2019-01-28T14:03:56.021Z,548
2019-01-28T14:04:36.642Z,508
2019-01-28T14:05:17.817Z,472
2019-01-28T14:05:58.961Z,452
2019-01-28T14:06:40.036Z,440
2019-01-28T14:07:21.300Z,420
2019-01-28T14:08:02.572Z,392
2019-01-28T14:08:44.557Z,360
2019-01-28T14:09:25.883Z,336
2019-01-28T14:10:07.283Z,312
2019-01-28T14:10:48.654Z,292
2019-01-28T14:11:29.782Z,284
2019-01-28T14:12:10.863Z,288
2019-01-28T14:12:52.017Z,292
2019-01-28T14:13:34.237Z,304
2019-01-28T14:14:15.540Z,320
2019-01-28T14:14:57.489Z,340
2019-01-28T14:15:38.760Z,360
2019-01-28T14:16:19.667Z,376
2019-01-28T14:17:00.830Z,388
2019-01-28T14:17:41.936Z,408
2019-01-28T14:18:23.145Z,424
2019-01-28T14:19:04.468Z,444
2019-01-28T14:19:46.712Z,464
2019-01-28T14:20:27.162Z,496
2019-01-28T14:21:08.382Z,524
2019-01-28T14:21:50.522Z,540
2019-01-28T14:22:31.851Z,548
2019-01-28T14:23:13.040Z,540
2019-01-28T14:23:54.376Z,524
2019-01-28T14:24:35.534Z,516
2019-01-28T14:25:16.868Z,512
2019-01-28T14:25:58.154Z,500
2019-01-28T14:26:39.386Z,484
2019-01-28T14:27:20.650Z,472
2019-01-28T14:28:01.958Z,464
2019-01-28T14:28:43.286Z,452
2019-01-28T14:29:24.546Z,436
2019-01-28T14:30:05.901Z,428
2019-01-28T14:30:47.145Z,420
2019-01-28T14:31:28.476Z,412
2019-01-28T14:32:09.765Z,404
2019-01-28T14:32:51.021Z,388
2019-01-28T14:33:32.282Z,380
2019-01-28T14:34:14.240Z,376
2019-01-28T14:34:55.452Z,384
2019-01-28T14:35:36.784Z,396
2019-01-28T14:36:18.070Z,412
2019-01-28T14:36:59.325Z,420
2019-01-28T14:37:40.516Z,420
2019-01-28T14:38:21.801Z,416
2019-01-28T14:39:03.059Z,416
2019-01-28T14:39:44.608Z,416
2019-01-28T14:40:25.664Z,412
2019-01-28T14:41:07.357Z,400
2019-01-28T14:41:48.360Z,380
2019-01-28T14:42:29.612Z,364
2019-01-28T14:43:11.767Z,356
2019-01-28T14:43:53.859Z,352
2019-01-28T14:44:35.127Z,368
2019-01-28T14:45:16.383Z,400
2019-01-28T14:45:57.261Z,448
2019-01-28T14:46:38.046Z,492
2019-01-28T14:47:19.252Z,516
2019-01-28T14:48:00.662Z,532
2019-01-28T14:48:48.605Z,544
2019-01-28T14:49:22.659Z,552